Time;durP1;ratioP1;P1;durP2;ratioP2;P2;SDS_P1;SDS_P2;PMS_P1;PMS_P2;Temp;Humidity;BMP_temperature;BMP_pressure;BME280_temperature;BME280_humidity;BME280_pressure;Samples;Min_cycle;Max_cycle;Signal;HPM_P1;HPM_P2
2022/12/08 00:01:40;;;;;;;26.87;9.83;;;;;;;;;;5034254;28;20259;-61
2022/12/08 00:04:06;;;;;;;23.57;9.43;;;;;;;;;;5033863;28;20570;-61
2022/12/08 00:09:26;;;;;;;26.60;10.40;;;;;;;;;;5037558;28;20219;-62
2022/12/08 00:11:55;;;;;;;23.87;9.73;;;0.80;99.90;;;;;;5037683;28;20556;-61
2022/12/08 00:14:33;;;;;;;23.33;10.37;;;0.80;99.90;;;;;;5050887;28;20202;-61
2022/12/08 00:16:59;;;;;;;21.97;10.40;;;;;;;;;;5057458;28;20191;-61
2022/12/08 00:19:26;;;;;;;24.10;11.30;;;;;;;;;;5057689;28;20173;-60
2022/12/08 00:21:52;;;;;;;23.77;11.67;;;;;;;;;;5055282;28;20177;-60
2022/12/08 00:24:19;;;;;;;27.43;11.90;;;0.60;99.90;;;;;;5057275;28;20180;-60
2022/12/08 00:26:45;;;;;;;23.40;10.43;;;;;;;;;;5057319;28;20211;-60
2022/12/08 00:29:11;;;;;;;21.30;9.00;;;;;;;;;;5055617;28;20213;-60
2022/12/08 00:31:37;;;;;;;18.23;8.77;;;;;;;;;;5056669;28;20572;-60
2022/12/08 00:34:03;;;;;;;20.63;8.70;;;0.50;99.90;;;;;;5048079;28;20750;-60
2022/12/08 00:36:29;;;;;;;22.67;8.90;;;;;;;;;;5045686;28;20634;-61
2022/12/08 00:38:56;;;;;;;19.17;8.40;;;;;;;;;;5055296;28;20185;-62
2022/12/08 00:44:08;;;;;;;19.03;9.60;;;;;;;;;;5057138;28;20188;-61
2022/12/08 00:46:34;;;;;;;17.67;8.80;;;;;;;;;;5056290;28;20173;-61
2022/12/08 00:49:00;;;;;;;16.73;7.10;;;;;;;;;;5056204;28;20242;-61
2022/12/08 00:51:26;;;;;;;21.93;6.53;;;;;;;;;;5046840;28;20173;-61
2022/12/08 00:53:53;;;;;;;12.17;5.70;;;;;;;;;;5037086;28;20659;-61
2022/12/08 00:56:19;;;;;;;12.80;5.83;;;;;;;;;;5016437;28;20256;-61
2022/12/08 00:58:45;;;;;;;19.37;6.53;;;;;;;;;;5047225;28;20181;-60
2022/12/08 01:01:12;;;;;;;12.20;6.67;;;0.40;99.90;;;;;;5055225;28;20180;-60
2022/12/08 01:03:39;;;;;;;15.67;6.40;;;0.50;99.90;;;;;;5056606;28;20181;-60
2022/12/08 01:06:06;;;;;;;16.17;7.00;;;0.30;99.90;;;;;;5043493;28;20227;-60
2022/12/08 01:08:32;;;;;;;16.10;6.43;;;0.20;99.90;;;;;;5056706;28;20204;-61
2022/12/08 01:11:27;;;;;;;18.90;6.17;;;0.30;99.90;;;;;;5056882;28;20180;-60
2022/12/08 01:13:54;;;;;;;19.37;6.67;;;;;;;;;;5023575;28;20182;-60
2022/12/08 01:16:29;;;;;;;16.87;6.80;;;-0.10;99.90;;;;;;5033357;28;20158;-60
2022/12/08 01:18:56;;;;;;;22.33;6.70;;;;;;;;;;5033955;28;20205;-60
2022/12/08 01:21:22;;;;;;;17.50;6.67;;;;;;;;;;5033888;28;20186;-60
2022/12/08 01:23:48;;;;;;;20.37;7.07;;;;;;;;;;5050956;28;20267;-60
2022/12/08 01:26:15;;;;;;;17.90;6.97;;;0.10;99.90;;;;;;5053463;28;20702;-60
2022/12/08 01:28:41;;;;;;;18.03;7.97;;;0.20;99.90;;;;;;5053522;28;20212;-60
2022/12/08 01:31:16;;;;;;;20.50;8.93;;;0.30;99.90;;;;;;5053582;28;20169;-60
2022/12/08 01:33:42;;;;;;;15.63;8.10;;;0.00;99.90;;;;;;5053357;28;20303;-59
2022/12/08 01:36:17;;;;;;;25.63;9.13;;;0.00;99.90;;;;;;5052698;28;20176;-59
2022/12/08 01:38:43;;;;;;;23.53;8.90;;;;;;;;;;5039305;28;20179;-59
2022/12/08 01:41:13;;;;;;;19.07;8.83;;;0.20;99.90;;;;;;5043310;28;20256;-59
2022/12/08 01:43:50;;;;;;;17.63;8.43;;;0.00;99.90;;;;;;5035882;28;20189;-59
2022/12/08 01:46:15;;;;;;;17.13;7.97;;;;;;;;;;5041130;28;20670;-59
2022/12/08 01:48:41;;;;;;;16.63;7.73;;;;;;;;;;5052559;28;20217;-59
2022/12/08 01:51:07;;;;;;;21.03;8.90;;;;;;;;;;5029606;28;20423;-60
2022/12/08 01:53:34;;;;;;;17.17;8.43;;;;;;;;;;5052821;28;20639;-60
2022/12/08 01:56:12;;;;;;;20.20;9.40;;;-0.10;99.90;;;;;;5051366;28;20183;-60
2022/12/08 01:58:44;;;;;;;21.90;8.73;;;-0.30;99.90;;;;;;5051165;28;20179;-59
2022/12/08 02:01:10;;;;;;;19.87;9.57;;;0.00;99.90;;;;;;5047501;28;20184;-59
2022/12/08 02:03:43;;;;;;;21.27;9.13;;;0.00;99.90;;;;;;5037862;28;20173;-59
2022/12/08 02:06:10;;;;;;;19.03;10.03;;;0.00;99.90;;;;;;5046290;28;20179;-59
2022/12/08 02:08:39;;;;;;;26.47;11.03;;;0.10;99.90;;;;;;5052611;28;20214;-61
2022/12/08 02:11:07;;;;;;;18.53;10.13;;;0.00;99.90;;;;;;5032989;28;20165;-60
2022/12/08 02:13:33;;;;;;;20.37;9.73;;;;;;;;;;5032873;28;20174;-60
2022/12/08 02:15:59;;;;;;;24.90;10.20;;;;;;;;;;5032795;28;20204;-60
2022/12/08 02:18:37;;;;;;;21.10;10.07;;;-0.10;99.90;;;;;;5032638;28;20215;-60
2022/12/08 02:21:10;;;;;;;24.13;10.33;;;-0.40;99.90;;;;;;5035013;28;20635;-60
2022/12/08 02:23:58;;;;;;;23.30;10.97;;;-0.20;99.90;;;;;;5053036;28;20701;-61
2022/12/08 02:26:53;;;;;;;23.60;10.23;;;-0.20;99.90;;;;;;5052062;28;20168;-60
2022/12/08 02:29:50;;;;;;;24.70;9.73;;;0.00;99.90;;;;;;5052450;28;20218;-59
2022/12/08 02:32:16;;;;;;;21.87;9.53;;;;;;;;;;5052434;28;20205;-58
2022/12/08 02:34:53;;;;;;;31.53;11.03;;;-0.30;99.90;;;;;;5052108;28;20267;-59
2022/12/08 02:37:56;;;;;;;22.23;10.17;;;-0.30;99.90;;;;;;5041982;28;20188;-61
2022/12/08 02:40:35;;;;;;;25.83;10.27;;;-0.40;99.90;;;;;;5051159;28;20182;-61
2022/12/08 02:43:32;;;;;;;20.33;9.90;;;-0.40;99.90;;;;;;5051062;28;20187;-61
2022/12/08 02:46:07;;;;;;;21.53;8.73;;;-2.20;99.90;;;;;;5035620;28;20205;-61
2022/12/08 02:48:33;;;;;;;20.47;9.50;;;-0.40;99.90;;;;;;5032152;28;20216;-60
2022/12/08 02:50:59;;;;;;;18.60;9.23;;;;;;;;;;5038057;28;20177;-61
2022/12/08 02:53:29;;;;;;;21.57;10.73;;;-0.20;99.90;;;;;;5052027;28;20190;-61
2022/12/08 02:56:36;;;;;;;25.67;11.53;;;-0.40;99.90;;;;;;5048429;28;20723;-60
2022/12/08 02:59:07;;;;;;;31.43;11.40;;;-2.50;99.90;;;;;;5051340;28;20647;-60
2022/12/08 03:01:57;;;;;;;28.60;11.73;;;-0.40;99.90;;;;;;5048813;28;20173;-61
2022/12/08 03:05:01;;;;;;;21.87;11.43;;;-0.30;99.90;;;;;;5039504;28;20202;-60
2022/12/08 03:07:26;;;;;;;26.97;11.20;;;;;;;;;;5040264;28;20216;-61
2022/12/08 03:10:10;;;;;;;19.73;10.33;;;-0.40;99.90;;;;;;5051388;28;20208;-60
2022/12/08 03:12:38;;;;;;;22.97;11.27;;;-0.30;99.90;;;;;;5042987;28;20178;-61
2022/12/08 03:15:12;;;;;;;21.37;10.77;;;-0.30;99.90;;;;;;5014038;28;20292;-61
2022/12/08 03:17:42;;;;;;;23.93;11.00;;;-0.40;99.90;;;;;;5031747;28;20308;-61
2022/12/08 03:20:12;;;;;;;24.57;9.97;;;-0.60;99.90;;;;;;5031738;28;20177;-61
2022/12/08 03:22:39;;;;;;;22.73;9.87;;;;;;;;;;5031643;28;20765;-59
2022/12/08 03:25:05;;;;;;;22.40;9.40;;;-0.40;99.90;;;;;;5042752;28;20203;-60
2022/12/08 03:27:31;;;;;;;25.47;10.80;;;-0.40;99.90;;;;;;5049059;28;20638;-59
2022/12/08 03:29:58;;;;;;;20.67;8.67;;;-0.60;99.90;;;;;;5051308;28;20181;-60
2022/12/08 03:32:24;;;;;;;22.10;9.07;;;;;;;;;;5051130;28;20195;-59
2022/12/08 03:34:51;;;;;;;26.57;10.27;;;-0.40;99.90;;;;;;5051346;28;20300;-59
2022/12/08 03:37:17;;;;;;;17.80;9.20;;;;;;;;;;5051228;28;20250;-60
2022/12/08 03:39:43;;;;;;;24.63;9.33;;;;;;;;;;5049973;28;20190;-60
2022/12/08 03:42:09;;;;;;;23.30;9.63;;;;;;;;;;5041774;28;20204;-60
2022/12/08 03:44:35;;;;;;;19.13;10.00;;;;;;;;;;5044615;28;20219;-60
2022/12/08 03:47:01;;;;;;;22.83;8.83;;;;;;;;;;5050458;28;20211;-61
2022/12/08 03:49:27;;;;;;;22.53;9.90;;;;;;;;;;5045081;28;20735;-60
2022/12/08 03:51:53;;;;;;;27.47;10.97;;;;;;;;;;5050114;28;20223;-60
2022/12/08 03:54:19;;;;;;;21.40;10.10;;;;;;;;;;5050824;28;20181;-60
2022/12/08 03:56:45;;;;;;;27.23;10.23;;;;;;;;;;5050905;28;20665;-60
2022/12/08 03:59:11;;;;;;;21.20;9.90;;;;;;;;;;5042635;28;20172;-60
2022/12/08 04:01:37;;;;;;;22.00;9.20;;;;;;;;;;5030943;28;20187;-61
2022/12/08 04:04:03;;;;;;;26.97;9.67;;;;;;;;;;5030759;28;20564;-60
2022/12/08 04:06:29;;;;;;;22.20;8.70;;;;;;;;;;5031020;28;20172;-60
2022/12/08 04:08:55;;;;;;;20.70;8.70;;;;;;;;;;5046626;28;20248;-60
2022/12/08 04:11:21;;;;;;;18.20;8.67;;;;;;;;;;5039630;28;20424;-60
2022/12/08 04:13:47;;;;;;;20.93;8.53;;;;;;;;;;5050578;28;20199;-61
2022/12/08 04:16:31;;;;;;;20.10;10.17;;;-0.90;99.90;;;;;;5050664;28;20191;-60
2022/12/08 04:18:57;;;;;;;20.90;8.97;;;;;;;;;;5050419;28;20273;-60
2022/12/08 04:21:23;;;;;;;20.33;9.27;;;;;;;;;;5050911;28;20203;-60
2022/12/08 04:23:49;;;;;;;23.67;8.97;;;;;;;;;;5050637;28;20189;-61
2022/12/08 04:26:16;;;;;;;27.27;10.40;;;;;;;;;;5050830;28;20555;-60
2022/12/08 04:28:42;;;;;;;21.77;9.97;;;;;;;;;;5048095;28;20333;-60
2022/12/08 04:31:08;;;;;;;21.50;9.13;;;;;;;;;;5030659;28;20174;-60
2022/12/08 04:33:34;;;;;;;18.33;9.57;;;;;;;;;;5012810;28;20229;-60
2022/12/08 04:36:00;;;;;;;19.60;10.10;;;;;;;;;;5046885;28;20275;-60
2022/12/08 04:38:27;;;;;;;20.73;8.77;;;;;;;;;;5040418;28;20200;-60
2022/12/08 04:40:53;;;;;;;20.43;9.23;;;;;;;;;;5050353;28;20673;-60
2022/12/08 04:43:19;;;;;;;27.53;9.90;;;;;;;;;;5050329;28;20266;-60
2022/12/08 04:45:45;;;;;;;21.67;9.50;;;;;;;;;;5048714;28;20593;-60
2022/12/08 04:48:12;;;;;;;20.27;9.27;;;;;;;;;;5050236;28;20228;-60
2022/12/08 04:50:42;;;;;;;26.97;9.97;;;-0.60;99.90;;;;;;5052248;28;20173;-60
2022/12/08 04:53:08;;;;;;;25.50;8.90;;;;;;;;;;5040850;28;20575;-60
2022/12/08 04:55:38;;;;;;;22.63;8.63;;;-0.40;99.90;;;;;;5049702;28;20683;-60
2022/12/08 04:58:04;;;;;;;25.37;9.23;;;;;;;;;;5052377;28;20656;-60
2022/12/08 05:00:30;;;;;;;17.47;8.07;;;;;;;;;;5042843;28;20196;-60
2022/12/08 05:02:55;;;;;;;17.67;8.23;;;-0.60;99.90;;;;;;5054174;28;20203;-60
2022/12/08 05:05:21;;;;;;;19.33;7.70;;;;;;;;;;5039141;28;20645;-60
2022/12/08 05:07:47;;;;;;;17.97;7.60;;;;;;;;;;5034125;28;20215;-61
2022/12/08 05:10:13;;;;;;;19.70;8.87;;;;;;;;;;5034053;28;20633;-60
2022/12/08 05:12:39;;;;;;;17.97;8.30;;;-0.10;99.90;;;;;;5034053;28;20172;-60
2022/12/08 05:15:05;;;;;;;22.53;8.93;;;-0.30;99.90;;;;;;5033996;28;20535;-60
2022/12/08 05:17:31;;;;;;;21.10;9.10;;;-0.50;99.90;;;;;;5048811;28;20633;-60
2022/12/08 05:19:56;;;;;;;20.97;8.97;;;-0.20;99.90;;;;;;5054013;28;20189;-59
2022/12/08 05:22:22;;;;;;;18.07;9.67;;;;;;;;;;5053738;28;20184;-59
2022/12/08 05:24:48;;;;;;;25.23;10.67;;;0.00;99.90;;;;;;5053684;28;20174;-59
2022/12/08 05:27:14;;;;;;;23.17;9.67;;;;;;;;;;5053799;28;20179;-59
2022/12/08 05:29:40;;;;;;;17.60;9.57;;;0.10;99.90;;;;;;5051671;28;20214;-59
2022/12/08 05:32:06;;;;;;;24.23;11.17;;;;;;;;;;5036062;28;20200;-60
2022/12/08 05:34:32;;;;;;;25.00;9.93;;;;;;;;;;5040241;28;20603;-60
2022/12/08 05:36:58;;;;;;;20.07;10.30;;;;;;;;;;5053195;28;20639;-59
2022/12/08 05:39:24;;;;;;;28.80;10.80;;;;;;;;;;5053314;28;20187;-59
2022/12/08 05:41:50;;;;;;;22.53;10.87;;;0.20;99.90;;;;;;5053357;28;20184;-60
2022/12/08 05:44:16;;;;;;;22.47;10.30;;;;;;;;;;5052956;28;20182;-61
2022/12/08 05:46:42;;;;;;;21.83;10.83;;;;;;;;;;5049577;28;20199;-60
2022/12/08 05:49:08;;;;;;;22.57;10.60;;;;;;;;;;5036658;28;20678;-60
2022/12/08 05:51:34;;;;;;;23.67;11.03;;;;;;;;;;5043036;28;20227;-60
2022/12/08 05:54:00;;;;;;;18.50;10.23;;;;;;;;;;5033840;28;20235;-60
2022/12/08 05:56:26;;;;;;;22.70;10.13;;;;;;;;;;5052366;28;20643;-60
2022/12/08 05:58:51;;;;;;;24.50;10.63;;;0.00;99.90;;;;;;5048895;28;20177;-60
2022/12/08 06:01:28;;;;;;;24.43;10.70;;;-0.10;99.90;;;;;;5037692;28;20182;-61
2022/12/08 06:03:55;;;;;;;20.30;10.20;;;0.30;99.90;;;;;;5041331;28;20243;-61
2022/12/08 06:06:21;;;;;;;23.97;10.63;;;0.20;99.90;;;;;;5033076;28;20264;-59
2022/12/08 06:08:47;;;;;;;21.03;10.30;;;;;;;;;;5032922;28;20687;-59
2022/12/08 06:11:33;;;;;;;32.13;11.87;;;0.20;99.90;;;;;;5032703;28;20176;-60
2022/12/08 06:13:59;;;;;;;24.23;11.03;;;0.50;99.90;;;;;;5033126;28;20187;-60
2022/12/08 06:16:26;;;;;;;21.80;10.87;;;0.10;99.90;;;;;;5052707;28;20176;-59
2022/12/08 06:18:52;;;;;;;23.40;12.10;;;0.20;99.90;;;;;;5045874;28;20206;-59
2022/12/08 06:21:18;;;;;;;27.57;12.37;;;0.30;99.90;;;;;;5052442;28;20197;-60
2022/12/08 06:23:48;;;;;;;22.70;10.90;;;0.40;99.90;;;;;;5051860;28;20184;-59
2022/12/08 06:26:14;;;;;;;22.57;11.77;;;0.30;99.90;;;;;;5044965;28;20163;-59
2022/12/08 06:28:41;;;;;;;26.37;11.70;;;;;;;;;;5027236;28;20280;-59
2022/12/08 06:31:15;;;;;;;25.80;11.53;;;0.70;99.90;;;;;;5049790;28;20181;-60
2022/12/08 06:33:41;;;;;;;29.50;12.50;;;;;;;;;;5051498;28;20228;-59
2022/12/08 06:36:10;;;;;;;28.23;12.30;;;0.40;99.90;;;;;;5048325;28;20192;-59
2022/12/08 06:38:35;;;;;;;28.53;12.87;;;0.40;99.90;;;;;;5043154;28;20177;-60
2022/12/08 06:41:01;;;;;;;26.50;13.33;;;0.70;99.90;;;;;;5031679;28;20205;-60
2022/12/08 06:43:27;;;;;;;31.00;13.20;;;0.20;99.90;;;;;;5030961;28;20185;-60
2022/12/08 06:45:52;;;;;;;24.90;12.53;;;0.20;99.90;;;;;;5047787;28;20283;-60
2022/12/08 06:48:18;;;;;;;27.60;12.50;;;0.30;99.90;;;;;;5040822;28;20220;-60
2022/12/08 06:50:45;;;;;;;23.20;12.83;;;;;;;;;;5043426;28;20655;-60
2022/12/08 06:53:11;;;;;;;29.60;13.50;;;0.10;99.90;;;;;;5051016;28;20180;-60
2022/12/08 06:55:37;;;;;;;27.03;11.97;;;;;;;;;;5024435;28;20529;-61
2022/12/08 06:58:03;;;;;;;27.57;11.57;;;;;;;;;;5047088;28;20173;-60
2022/12/08 07:00:30;;;;;;;26.23;11.40;;;;;;;;;;5047178;28;20181;-60
2022/12/08 07:02:55;;;;;;;23.83;11.93;;;-0.40;99.90;;;;;;5030659;28;20173;-58
2022/12/08 07:05:21;;;;;;;26.43;11.27;;;-0.10;99.90;;;;;;5046079;28;20541;-60
2022/12/08 07:07:46;;;;;;;25.93;11.73;;;0.10;99.90;;;;;;5039396;28;20197;-60
2022/12/08 07:10:12;;;;;;;27.77;12.07;;;-0.30;99.90;;;;;;5051625;28;20648;-60
2022/12/08 07:12:37;;;;;;;34.20;12.47;;;-0.50;99.90;;;;;;5041755;28;20171;-60
2022/12/08 07:15:03;;;;;;;27.47;11.37;;;-0.70;99.90;;;;;;5031037;28;20793;-61
2022/12/08 07:17:29;;;;;;;25.70;11.97;;;0.00;99.90;;;;;;5031734;28;20573;-59
2022/12/08 07:19:55;;;;;;;35.03;13.40;;;-0.20;99.90;;;;;;5031560;28;20178;-59
2022/12/08 07:22:20;;;;;;;33.53;12.33;;;-0.20;99.90;;;;;;5023862;28;20194;-60
2022/12/08 07:24:46;;;;;;;22.97;11.80;;;;;;;;;;5040857;28;20269;-60
2022/12/08 07:27:12;;;;;;;28.63;12.10;;;;;;;;;;5051436;28;20173;-59
2022/12/08 07:29:38;;;;;;;25.50;11.23;;;;;;;;;;5051456;28;20725;-59
2022/12/08 07:32:06;;;;;;;28.40;11.93;;;-0.30;99.90;;;;;;5051313;28;20175;-59
2022/12/08 07:34:32;;;;;;;24.87;12.53;;;;;;;;;;5051045;28;20232;-63
2022/12/08 07:36:58;;;;;;;33.40;13.67;;;;;;;;;;5051071;28;20180;-59
2022/12/08 07:39:24;;;;;;;28.17;12.47;;;;;;;;;;5044677;28;20251;-59
2022/12/08 07:41:50;;;;;;;30.60;12.77;;;-0.40;99.90;;;;;;5031139;28;20539;-59
2022/12/08 07:44:16;;;;;;;27.70;12.77;;;;;;;;;;5047109;28;20182;-59
2022/12/08 07:46:42;;;;;;;24.20;12.53;;;;;;;;;;5034970;28;20204;-59
2022/12/08 07:49:08;;;;;;;21.83;10.33;;;;;;;;;;5050551;28;20243;-59
2022/12/08 07:51:34;;;;;;;17.17;9.90;;;;;;;;;;5041523;28;20174;-59
2022/12/08 07:54:00;;;;;;;29.33;10.10;;;;;;;;;;5031060;28;20842;-59
2022/12/08 07:56:26;;;;;;;23.47;10.40;;;;;;;;;;5046593;28;20172;-59
2022/12/08 07:58:52;;;;;;;24.73;12.03;;;;;;;;;;5043123;28;20694;-58
2022/12/08 08:01:26;;;;;;;27.90;11.13;;;-0.50;99.90;;;;;;5046517;28;20264;-59
2022/12/08 08:03:53;;;;;;;29.03;11.30;;;;;;;;;;5049398;28;20183;-59
2022/12/08 08:06:19;;;;;;;22.70;10.93;;;;;;;;;;5031782;28;20669;-59
2022/12/08 08:08:45;;;;;;;24.47;10.93;;;;;;;;;;5035444;28;20216;-59
2022/12/08 08:11:11;;;;;;;24.97;10.83;;;;;;;;;;5037530;28;20181;-60
2022/12/08 08:13:37;;;;;;;22.40;11.00;;;;;;;;;;5037300;28;20189;-60
2022/12/08 08:16:08;;;;;;;29.13;10.93;;;-0.70;99.90;;;;;;5046636;28;20204;-59
2022/12/08 08:18:34;;;;;;;27.27;11.80;;;-0.50;99.90;;;;;;5023627;28;20663;-58
2022/12/08 08:21:00;;;;;;;28.90;10.83;;;;;;;;;;5050447;28;20184;-58
2022/12/08 08:23:26;;;;;;;23.40;11.77;;;-0.60;99.90;;;;;;5032636;28;20177;-59
2022/12/08 08:25:52;;;;;;;25.00;12.10;;;;;;;;;;5053333;28;20638;-59
2022/12/08 08:28:19;;;;;;;30.00;12.87;;;;;;;;;;5054696;28;20215;-58
2022/12/08 08:30:45;;;;;;;26.47;13.40;;;-0.30;99.90;;;;;;5036880;28;20172;-59
2022/12/08 08:33:12;;;;;;;27.10;13.13;;;;;;;;;;5054680;28;20216;-59
2022/12/08 08:35:38;;;;;;;31.10;14.30;;;;;;;;;;5049305;28;20203;-58
2022/12/08 08:38:04;;;;;;;27.50;13.40;;;-0.10;99.90;;;;;;5034751;28;20231;-59
2022/12/08 08:40:30;;;;;;;29.87;12.97;;;;;;;;;;5034649;28;20181;-59
2022/12/08 08:42:56;;;;;;;30.50;13.33;;;-0.10;99.90;;;;;;5034514;28;20255;-59
2022/12/08 08:45:22;;;;;;;34.33;14.40;;;;;;;;;;5035903;28;20209;-59
2022/12/08 08:47:47;;;;;;;28.67;13.03;;;0.50;99.90;;;;;;5053981;28;20233;-59
2022/12/08 08:50:13;;;;;;;24.77;12.43;;;;;;;;;;5053996;28;20180;-58
2022/12/08 08:52:39;;;;;;;21.77;11.27;;;0.70;99.90;;;;;;5053720;28;20212;-58
2022/12/08 08:55:05;;;;;;;24.03;10.80;;;;;;;;;;5054260;28;20188;-58
2022/12/08 08:57:31;;;;;;;25.07;10.83;;;;;;;;;;5043640;28;20174;-59
2022/12/08 08:59:57;;;;;;;17.50;9.37;;;;;;;;;;5047539;28;20204;-59
2022/12/08 09:02:23;;;;;;;21.60;9.70;;;1.40;99.90;;;;;;5054362;28;20644;-59
2022/12/08 09:04:49;;;;;;;20.40;10.10;;;1.20;99.90;;;;;;5051849;28;20330;-59
2022/12/08 09:07:15;;;;;;;19.27;8.63;;;;;;;;;;5054034;28;20178;-59
2022/12/08 09:09:41;;;;;;;25.73;9.80;;;;;;;;;;5053991;28;20259;-59
2022/12/08 09:12:07;;;;;;;16.23;8.27;;;2.10;99.90;;;;;;5051698;28;20291;-59
2022/12/08 09:14:33;;;;;;;26.47;9.10;;;;;;;;;;5048214;28;20197;-58
2022/12/08 09:16:59;;;;;;;16.50;7.77;;;2.30;99.90;;;;;;5053909;28;20166;-59
2022/12/08 09:19:25;;;;;;;18.00;8.40;;;;;;;;;;5051512;28;20169;-59
2022/12/08 09:21:51;;;;;;;20.43;8.73;;;;;;;;;;5053477;28;20216;-59
2022/12/08 09:24:17;;;;;;;19.00;8.00;;;;;;;;;;5053643;28;20208;-59
2022/12/08 09:26:43;;;;;;;23.60;9.33;;;2.70;99.90;;;;;;5053550;28;20640;-59
2022/12/08 09:29:10;;;;;;;20.20;8.97;;;3.00;99.90;;;;;;5053468;28;20270;-58
2022/12/08 09:31:36;;;;;;;18.57;8.87;;;2.90;99.90;;;;;;5053539;28;20195;-59
2022/12/08 09:34:03;;;;;;;19.70;9.37;;;1.50;99.90;;;;;;5053572;28;20245;-59
2022/12/08 09:36:29;;;;;;;17.93;8.37;;;3.10;99.90;;;;;;5052391;28;20172;-60
2022/12/08 09:38:55;;;;;;;20.63;8.90;;;;;;;;;;5053449;28;20705;-59
2022/12/08 09:41:48;;;;;;;24.10;10.23;;;1.90;99.90;;;;;;5053295;28;20169;-59
2022/12/08 09:44:38;;;;;;;27.63;10.37;;;3.50;99.90;;;;;;5035347;28;20581;-59
2022/12/08 09:47:41;;;;;;;23.80;9.90;;;2.90;99.90;;;;;;5053298;28;20212;-59
2022/12/08 09:50:38;;;;;;;20.20;9.90;;;2.50;99.90;;;;;;5053049;28;20226;-59
2022/12/08 09:53:23;;;;;;;27.80;11.13;;;3.00;99.90;;;;;;5053055;28;20176;-58
2022/12/08 09:56:00;;;;;;;24.17;11.40;;;3.00;99.90;;;;;;5053130;28;20196;-59
2022/12/08 09:58:46;;;;;;;25.43;12.37;;;3.10;99.90;;;;;;5053024;28;20290;-59
2022/12/08 10:01:13;;;;;;;24.93;12.53;;;3.00;99.90;;;;;;5053033;28;20165;-59
2022/12/08 10:03:40;;;;;;;24.10;12.17;;;3.10;99.90;;;;;;5052962;28;20169;-58
2022/12/08 10:06:14;;;;;;;23.77;11.73;;;3.00;99.90;;;;;;5052803;28;20211;-59
2022/12/08 10:09:29;;;;;;;29.83;11.80;;;3.10;99.90;;;;;;5045021;28;20213;-59
2022/12/08 10:12:24;;;;;;;24.17;11.07;;;3.10;99.90;;;;;;5034984;28;20185;-59
2022/12/08 10:15:27;;;;;;;30.57;12.60;;;2.80;99.90;;;;;;5052569;28;20184;-59
2022/12/08 10:17:55;;;;;;;25.77;12.30;;;3.20;99.90;;;;;;5052701;28;20161;-59
2022/12/08 10:20:23;;;;;;;27.07;12.80;;;3.80;99.90;;;;;;5052637;28;20177;-60
2022/12/08 10:23:01;;;;;;;28.40;11.53;;;3.90;99.90;;;;;;5052611;28;20223;-60
2022/12/08 10:25:47;;;;;;;35.10;12.97;;;3.60;99.90;;;;;;5052471;28;20199;-60
2022/12/08 10:28:12;;;;;;;28.40;12.23;;;4.30;99.90;;;;;;5052566;28;20215;-60
2022/12/08 10:30:38;;;;;;;27.50;12.53;;;5.60;99.90;;;;;;5052425;28;20256;-60
2022/12/08 10:33:04;;;;;;;24.33;11.50;;;6.20;99.90;;;;;;5052304;28;20215;-60
2022/12/08 10:35:51;;;;;;;26.90;12.33;;;7.50;99.90;;;;;;5052336;28;20173;-59
2022/12/08 10:38:30;;;;;;;24.30;12.20;;;7.10;99.90;;;;;;5052224;28;20177;-59
2022/12/08 10:41:18;;;;;;;29.40;14.73;;;6.60;99.90;;;;;;5052208;28;20166;-59
2022/12/08 10:43:58;;;;;;;28.83;14.33;;;7.40;99.90;;;;;;5051999;28;20185;-58
2022/12/08 10:46:26;;;;;;;31.27;13.87;;;7.90;99.90;;;;;;5051970;28;20194;-59
2022/12/08 10:48:54;;;;;;;29.97;13.40;;;7.90;99.90;;;;;;5051474;28;20201;-59
2022/12/08 10:51:34;;;;;;;32.33;14.27;;;7.00;99.90;;;;;;5034181;28;20231;-59
2022/12/08 10:54:00;;;;;;;27.03;13.40;;;6.60;99.90;;;;;;5051875;28;20176;-59
2022/12/08 10:56:28;;;;;;;26.77;13.83;;;6.00;99.90;;;;;;5051008;28;20173;-59
2022/12/08 10:59:13;;;;;;;28.67;13.43;;;6.20;99.90;;;;;;5051647;28;20283;-59
2022/12/08 11:01:41;;;;;;;25.67;13.27;;;7.20;99.90;;;;;;5048980;28;20173;-60
2022/12/08 11:04:15;;;;;;;22.93;12.93;;;8.30;99.90;;;;;;5046680;28;20220;-60
2022/12/08 11:06:41;;;;;;;26.27;13.17;;;8.60;99.90;;;;;;5050595;28;20169;-59
2022/12/08 11:09:16;;;;;;;28.20;12.37;;;9.60;99.90;;;;;;5051618;28;20667;-58
2022/12/08 11:11:57;;;;;;;24.30;13.30;;;10.50;99.90;;;;;;5051687;28;20667;-59
2022/12/08 11:14:41;;;;;;;26.07;11.17;;;9.40;99.90;;;;;;5049392;28;20204;-58
2022/12/08 11:17:12;;;;;;;19.63;10.03;;;11.10;99.90;;;;;;5051409;28;20176;-60
2022/12/08 11:19:39;;;;;;;17.70;8.63;;;10.50;99.90;;;;;;5051203;28;20177;-58
2022/12/08 11:22:31;;;;;;;17.13;8.33;;;10.70;99.90;;;;;;5049826;28;20177;-59
2022/12/08 11:25:02;;;;;;;14.90;8.60;;;11.00;99.90;;;;;;5049490;28;20173;-58
2022/12/08 11:27:29;;;;;;;14.80;8.33;;;11.70;99.90;;;;;;5049559;28;20219;-58
2022/12/08 11:29:55;;;;;;;20.10;7.95;;;11.80;99.90;;;;;;5049593;28;20305;-57
2022/12/08 11:32:21;;;;;;;20.48;8.35;;;12.50;99.90;;;;;;5049932;28;20173;-58
2022/12/08 11:35:16;;;;;;;16.10;8.82;;;12.50;99.90;;;;;;5049264;28;20221;-58
2022/12/08 11:37:42;;;;;;;20.25;9.07;;;13.50;99.90;;;;;;5046075;28;20212;-57
2022/12/08 11:40:36;;;;;;;21.50;8.38;;;14.30;99.90;;;;;;5051198;28;20180;-58
2022/12/08 11:43:28;;;;;;;16.95;8.63;;;17.00;99.90;;;;;;5051121;28;20231;-58
2022/12/08 11:45:59;;;;;;;15.90;8.48;;;19.00;99.90;;;;;;5046387;28;20181;-58
2022/12/08 11:49:01;;;;;;;15.93;8.07;;;19.80;99.90;;;;;;5051090;28;20200;-58
2022/12/08 11:51:41;;;;;;;12.40;5.32;;;19.10;99.90;;;;;;5051129;28;20266;-58
2022/12/08 11:54:16;;;;;;;8.45;4.72;;;19.60;99.90;;;;;;5050499;28;20169;-59
2022/12/08 11:56:48;;;;;;;10.90;5.00;;;19.60;99.90;;;;;;5050234;28;20164;-59
2022/12/08 11:59:32;;;;;;;8.73;5.10;;;20.50;99.90;;;;;;5050105;28;20260;-60
2022/12/08 12:02:00;;;;;;;9.40;4.90;;;21.30;99.90;;;;;;5050811;28;20165;-59
2022/12/08 12:04:53;;;;;;;9.63;4.80;;;20.50;99.90;;;;;;5051064;28;20177;-59
2022/12/08 12:07:37;;;;;;;12.98;6.20;;;22.00;99.90;;;;;;5040333;28;20181;-59
2022/12/08 12:10:33;;;;;;;11.00;5.00;;;21.30;99.90;;;;;;5050896;28;20667;-59
2022/12/08 12:13:27;;;;;;;12.98;5.70;;;21.40;99.90;;;;;;5050747;28;20173;-59
2022/12/08 12:16:16;;;;;;;9.57;5.20;;;22.10;99.90;;;;;;5050697;28;20489;-58
2022/12/08 12:19:02;;;;;;;10.20;5.15;;;22.00;99.90;;;;;;5050929;28;20177;-59
2022/12/08 12:21:38;;;;;;;11.57;7.32;;;22.30;99.90;;;;;;5049931;28;20561;-59
2022/12/08 12:24:16;;;;;;;8.80;5.25;;;22.30;99.90;;;;;;5050574;28;20639;-59
2022/12/08 12:26:59;;;;;;;8.90;5.07;;;21.90;99.90;;;;;;5050869;28;20322;-59
2022/12/08 12:29:32;;;;;;;9.82;4.22;;;21.10;99.90;;;;;;5050686;28;20220;-59
2022/12/08 12:32:03;;;;;;;8.43;4.15;;;21.20;99.90;;;;;;5050557;28;20625;-59
2022/12/08 12:34:49;;;;;;;50.47;7.35;;;22.00;99.90;;;;;;5050369;28;20224;-59
2022/12/08 12:37:23;;;;;;;36.45;6.68;;;22.00;99.90;;;;;;5050788;28;20169;-58
2022/12/08 12:40:02;;;;;;;43.92;6.38;;;21.50;99.90;;;;;;5050636;28;20224;-58
2022/12/08 12:42:38;;;;;;;42.75;5.38;;;21.10;99.90;;;;;;5050501;28;20640;-58
2022/12/08 12:45:21;;;;;;;72.03;6.50;;;22.50;99.90;;;;;;5050565;28;20165;-58
2022/12/08 12:47:57;;;;;;;112.53;8.75;;;21.70;99.90;;;;;;5050215;28;20177;-58
2022/12/08 12:50:32;;;;;;;21.13;4.13;;;22.10;99.90;;;;;;5050336;28;20209;-58
2022/12/08 12:53:16;;;;;;;12.48;3.30;;;22.00;99.90;;;;;;5050911;28;20173;-58
2022/12/08 12:55:44;;;;;;;23.35;4.25;;;19.70;99.90;;;;;;5050455;28;20584;-59
2022/12/08 12:58:22;;;;;;;53.75;6.30;;;20.90;99.90;;;;;;5050383;28;20255;-59
2022/12/08 13:00:48;;;;;;;9.70;3.08;;;20.60;99.90;;;;;;5050384;28;20271;-59
2022/12/08 13:03:16;;;;;;;9.02;3.15;;;20.50;99.90;;;;;;5050521;28;20264;-59
2022/12/08 13:05:51;;;;;;;66.57;6.05;;;20.30;99.90;;;;;;5050887;28;20175;-59
2022/12/08 13:08:17;;;;;;;38.33;4.72;;;;;;;;;;5050424;28;20240;-59
2022/12/08 13:10:57;;;;;;;15.77;3.63;;;21.40;99.90;;;;;;5047641;28;20706;-59
2022/12/08 13:13:23;;;;;;;19.10;3.42;;;21.80;99.90;;;;;;5036128;28;20221;-59
2022/12/08 13:15:52;;;;;;;46.45;6.45;;;20.10;99.90;;;;;;5050679;28;20208;-58
2022/12/08 13:18:24;;;;;;;272.15;148.68;;;20.40;99.90;;;;;;5053017;28;20211;-59
2022/12/08 13:20:53;;;;;;;21.75;8.43;;;20.60;99.90;;;;;;5052023;28;20220;-59
2022/12/08 13:23:48;;;;;;;28.98;9.20;;;20.40;99.90;;;;;;5021697;28;20235;-58
2022/12/08 13:26:19;;;;;;;16.23;2.92;;;20.10;99.90;;;;;;5044532;28;20656;-58
2022/12/08 13:29:00;;;;;;;13.50;2.97;;;20.30;99.90;;;;;;5033278;28;20217;-58
2022/12/08 13:31:52;;;;;;;25.98;4.53;;;19.60;99.90;;;;;;5033477;28;20169;-59
2022/12/08 13:34:32;;;;;;;43.03;7.40;;;18.10;99.90;;;;;;5041341;28;20232;-59
2022/12/08 13:37:06;;;;;;;37.17;13.45;;;17.00;99.90;;;;;;5052841;28;20235;-58
2022/12/08 13:39:38;;;;;;;47.40;6.50;;;16.10;99.90;;;;;;5053370;28;20667;-58
2022/12/08 13:42:19;;;;;;;19.63;4.63;;;15.50;99.90;;;;;;5053387;28;20165;-58